Time;durP1;ratioP1;P1;durP2;ratioP2;P2;SDS_P1;SDS_P2;PMS_P1;PMS_P2;Temp;Humidity;BMP_temperature;BMP_pressure;BME280_temperature;BME280_humidity;BME280_pressure;Samples;Min_cycle;Max_cycle;Signal;HPM_P1;HPM_P2
2022/01/04 00:00:44;;;;;;;24.15;5.43;;;7.20;99.90;;;;;;5086496;27;20096;-85
2022/01/04 00:03:10;;;;;;;45.10;8.88;;;7.20;99.90;;;;;;5118804;27;20043;-86
2022/01/04 00:05:36;;;;;;;39.63;5.97;;;7.20;99.90;;;;;;5110780;28;20063;-86
2022/01/04 00:08:07;;;;;;;37.80;7.15;;;7.20;99.90;;;;;;5123398;27;20042;-85
2022/01/04 00:10:32;;;;;;;;;;;7.20;99.90;;;;;;5116161;27;20516;-84
2022/01/04 00:15:44;;;;;;;32.83;6.20;;;7.10;99.90;;;;;;5093226;28;20047;-79
2022/01/04 00:18:10;;;;;;;35.15;7.53;;;7.10;99.90;;;;;;5092646;27;20105;-86
2022/01/04 00:20:36;;;;;;;30.27;4.85;;;7.10;99.90;;;;;;5122588;27;20039;-85
2022/01/04 00:23:01;;;;;;;30.30;6.60;;;7.10;99.90;;;;;;5116807;27;20032;-79
2022/01/04 00:25:27;;;;;;;37.75;7.85;;;7.20;99.90;;;;;;5111914;27;20390;-85
2022/01/04 00:27:52;;;;;;;30.75;6.57;;;7.20;99.90;;;;;;5122351;27;20488;-85
2022/01/04 00:30:18;;;;;;;29.83;5.47;;;7.30;99.90;;;;;;5098473;28;20088;-85
2022/01/04 00:32:44;;;;;;;25.73;5.97;;;7.40;99.90;;;;;;5119811;27;20500;-85
2022/01/04 00:35:09;;;;;;;38.50;5.55;;;7.40;99.90;;;;;;5111396;27;20039;-84
2022/01/04 00:37:35;;;;;;;33.38;6.05;;;7.50;99.90;;;;;;5112765;27;20050;-86
2022/01/04 00:40:01;;;;;;;27.40;5.72;;;7.50;99.90;;;;;;5075880;28;20115;-85
2022/01/04 00:42:26;;;;;;;24.60;6.15;;;7.60;99.90;;;;;;5092219;28;20042;-85
2022/01/04 00:44:52;;;;;;;32.53;6.07;;;7.50;99.90;;;;;;5093053;28;20476;-86
2022/01/04 00:47:25;;;;;;;40.35;7.70;;;7.50;99.90;;;;;;5110155;28;20118;-84
2022/01/04 00:49:51;;;;;;;48.22;8.65;;;7.50;99.90;;;;;;5125180;28;20047;-86
2022/01/04 00:52:17;;;;;;;35.30;6.50;;;7.50;99.90;;;;;;5132508;28;20070;-85
2022/01/04 00:54:45;;;;;;;31.05;5.97;;;7.50;99.90;;;;;;5087372;28;20095;-79
2022/01/04 00:57:11;;;;;;;38.08;7.18;;;7.60;99.90;;;;;;5120153;28;20071;-85
2022/01/04 00:59:37;;;;;;;22.88;5.85;;;7.60;99.90;;;;;;5129128;27;20070;-84
2022/01/04 01:02:03;;;;;;;22.13;5.88;;;7.70;99.90;;;;;;5102485;28;20024;-82
2022/01/04 01:04:29;;;;;;;30.15;6.63;;;7.70;99.90;;;;;;5124618;28;20047;-84
2022/01/04 01:06:54;;;;;;;30.38;4.68;;;7.70;99.90;;;;;;5140714;27;20101;-82
2022/01/04 01:09:22;;;;;;;26.75;6.00;;;7.70;99.90;;;;;;5141067;27;20042;-84
2022/01/04 01:11:48;;;;;;;19.20;4.57;;;7.60;99.90;;;;;;5124566;28;20046;-85
2022/01/04 01:14:14;;;;;;;29.77;5.97;;;7.70;99.90;;;;;;5130436;27;20485;-83
2022/01/04 01:16:39;;;;;;;20.23;4.45;;;7.60;99.90;;;;;;5109204;28;20047;-84
2022/01/04 01:19:05;;;;;;;35.80;7.70;;;7.60;99.90;;;;;;5144018;28;20039;-85
2022/01/04 01:21:30;;;;;;;26.60;5.85;;;7.70;99.90;;;;;;5121543;28;20043;-83
2022/01/04 01:23:56;;;;;;;37.72;7.75;;;7.60;99.90;;;;;;5139757;28;20066;-83
2022/01/04 01:26:22;;;;;;;49.60;10.10;;;7.70;99.90;;;;;;5106922;28;20131;-83
2022/01/04 01:28:47;;;;;;;25.58;5.78;;;7.70;99.90;;;;;;5124736;28;20044;-84
2022/01/04 01:31:13;;;;;;;25.45;6.80;;;7.70;99.90;;;;;;5126015;28;20069;-81
2022/01/04 01:33:38;;;;;;;40.28;8.75;;;7.70;99.90;;;;;;5106647;28;20042;-84
2022/01/04 01:36:05;;;;;;;35.80;7.38;;;7.70;99.90;;;;;;5119552;27;20098;-83
2022/01/04 01:38:30;;;;;;;41.38;7.05;;;7.60;99.90;;;;;;5113899;28;20063;-85
2022/01/04 01:40:56;;;;;;;34.88;7.20;;;7.60;99.90;;;;;;5133887;27;20054;-82
2022/01/04 01:43:24;;;;;;;40.13;8.05;;;7.60;99.90;;;;;;5124201;28;20570;-84
2022/01/04 01:45:50;;;;;;;49.50;9.63;;;7.50;99.90;;;;;;5123524;27;20040;-82
2022/01/04 01:48:16;;;;;;;36.28;6.55;;;7.50;99.90;;;;;;5118747;27;20039;-84
2022/01/04 01:50:42;;;;;;;39.35;8.45;;;7.50;99.90;;;;;;5123837;27;20137;-84
2022/01/04 01:53:08;;;;;;;37.88;8.32;;;7.50;99.90;;;;;;5122957;27;20062;-85
2022/01/04 01:55:34;;;;;;;36.60;7.07;;;7.60;99.90;;;;;;5127085;27;20051;-84
2022/01/04 01:58:00;;;;;;;32.92;7.90;;;7.50;99.90;;;;;;5114650;28;20043;-84
2022/01/04 02:00:28;;;;;;;46.70;7.88;;;7.70;99.90;;;;;;5109253;27;20542;-87
2022/01/04 02:02:54;;;;;;;53.72;8.75;;;7.60;99.90;;;;;;5120829;27;20088;-84
2022/01/04 02:05:21;;;;;;;39.90;7.03;;;7.60;99.90;;;;;;5080316;28;20040;-84
2022/01/04 02:07:47;;;;;;;34.63;7.97;;;7.70;99.90;;;;;;5116184;27;20040;-85
2022/01/04 02:10:13;;;;;;;41.60;8.23;;;7.60;99.90;;;;;;5114363;27;20062;-83
2022/01/04 02:12:49;;;;;;;29.50;7.60;;;7.70;99.90;;;;;;5109109;27;20465;-84
2022/01/04 02:15:18;;;;;;;29.63;7.43;;;7.60;99.90;;;;;;5117140;27;20047;-80
2022/01/04 02:17:44;;;;;;;40.83;8.70;;;7.60;99.90;;;;;;5114390;27;20084;-84
2022/01/04 02:20:11;;;;;;;45.83;10.23;;;7.60;99.90;;;;;;5103731;27;20043;-85
2022/01/04 02:22:37;;;;;;;26.00;7.32;;;7.60;99.90;;;;;;5134297;27;20597;-85
2022/01/04 02:25:05;;;;;;;42.90;8.02;;;7.70;99.90;;;;;;5114192;27;20047;-84
2022/01/04 02:27:33;;;;;;;28.42;7.57;;;7.70;99.90;;;;;;5125519;28;20039;-84
2022/01/04 02:29:59;;;;;;;28.65;6.80;;;7.70;99.90;;;;;;5123615;28;20047;-86
2022/01/04 02:32:25;;;;;;;30.85;8.77;;;7.80;99.90;;;;;;5127309;28;20061;-84
2022/01/04 02:34:51;;;;;;;29.67;6.15;;;7.80;99.90;;;;;;5112451;28;20161;-85
2022/01/04 02:37:24;;;;;;;36.50;6.55;;;7.90;99.90;;;;;;5116738;28;20035;-85
2022/01/04 02:39:51;;;;;;;33.65;8.45;;;7.80;99.90;;;;;;5114033;28;20040;-85
2022/01/04 02:42:16;;;;;;;34.88;8.80;;;7.90;99.90;;;;;;5100413;28;20035;-86
2022/01/04 02:44:43;;;;;;;29.73;6.45;;;7.90;99.90;;;;;;5135331;27;20043;-86
2022/01/04 02:47:09;;;;;;;32.72;7.53;;;7.90;99.90;;;;;;5128789;28;20164;-85
2022/01/04 02:49:35;;;;;;;25.92;6.32;;;7.80;99.90;;;;;;5095128;28;20402;-86
2022/01/04 02:52:01;;;;;;;26.33;7.13;;;7.90;99.90;;;;;;5094859;28;20042;-85
2022/01/04 02:54:26;;;;;;;40.13;8.57;;;7.90;99.90;;;;;;5126835;28;20434;-86
2022/01/04 02:56:52;;;;;;;24.52;6.05;;;7.80;99.90;;;;;;5127524;28;20039;-84
2022/01/04 02:59:19;;;;;;;32.65;7.30;;;7.80;99.90;;;;;;5089683;28;20102;-85
2022/01/04 03:01:44;;;;;;;32.25;8.63;;;7.70;99.90;;;;;;5101901;28;20099;-85
2022/01/04 03:04:10;;;;;;;36.17;6.95;;;7.80;99.90;;;;;;5124904;28;20467;-84
2022/01/04 03:06:36;;;;;;;34.92;6.82;;;7.80;99.90;;;;;;5096139;28;20067;-85
2022/01/04 03:09:04;;;;;;;26.90;5.55;;;7.80;99.90;;;;;;5079049;28;20051;-83
2022/01/04 03:11:30;;;;;;;36.15;8.75;;;7.80;99.90;;;;;;5117012;28;20359;-85
2022/01/04 03:13:56;;;;;;;25.13;6.13;;;7.80;99.90;;;;;;5099255;28;20095;-86
2022/01/04 03:16:22;;;;;;;26.70;7.65;;;7.80;99.90;;;;;;5112983;28;20039;-85
2022/01/04 03:19:10;;;;;;;34.28;7.30;;;7.80;99.90;;;;;;5115953;28;20122;-86
2022/01/04 03:21:38;;;;;;;21.10;5.78;;;7.80;99.90;;;;;;5115217;28;20039;-84
2022/01/04 03:24:05;;;;;;;36.33;7.03;;;7.80;99.90;;;;;;5128809;28;20043;-86
2022/01/04 03:26:31;;;;;;;28.17;5.18;;;7.80;99.90;;;;;;5075804;28;1047241;-85
2022/01/04 03:28:58;;;;;;;41.13;8.13;;;7.70;99.90;;;;;;5119012;27;20066;-86
2022/01/04 03:31:25;;;;;;;24.83;5.00;;;7.70;99.90;;;;;;5097098;27;20040;-87
2022/01/04 03:33:51;;;;;;;38.10;8.70;;;7.70;99.90;;;;;;5098260;28;20059;-85
2022/01/04 03:36:20;;;;;;;29.20;5.63;;;7.70;99.90;;;;;;5095849;28;20060;-86
2022/01/04 03:38:47;;;;;;;34.17;7.70;;;7.80;99.90;;;;;;5117868;27;20047;-86
2022/01/04 03:41:13;;;;;;;39.38;9.15;;;7.80;99.90;;;;;;5124748;27;20048;-83
2022/01/04 03:43:38;;;;;;;36.65;7.60;;;7.80;99.90;;;;;;5098377;28;20031;-84
2022/01/04 03:46:05;;;;;;;28.38;6.50;;;7.80;99.90;;;;;;5115157;27;20032;-80
2022/01/04 03:48:31;;;;;;;34.33;7.38;;;7.80;99.90;;;;;;5132232;27;20051;-85
2022/01/04 03:50:56;;;;;;;37.85;7.65;;;7.80;99.90;;;;;;5107040;28;20083;-84
2022/01/04 03:53:22;;;;;;;23.83;5.93;;;7.80;99.90;;;;;;5109766;27;20043;-84
2022/01/04 03:55:47;;;;;;;40.25;6.65;;;7.80;99.90;;;;;;5106350;28;20044;-84
2022/01/04 03:58:13;;;;;;;32.95;6.93;;;7.70;99.90;;;;;;5099940;27;20493;-79
2022/01/04 04:00:39;;;;;;;32.40;6.53;;;7.70;99.90;;;;;;5116154;27;20031;-85
2022/01/04 04:03:04;;;;;;;29.08;7.70;;;7.70;99.90;;;;;;5110493;28;20456;-84
2022/01/04 04:05:30;;;;;;;28.42;6.45;;;7.80;99.90;;;;;;5093278;28;20039;-85
2022/01/04 04:07:55;;;;;;;39.08;8.10;;;7.70;99.90;;;;;;5094900;28;20123;-85
2022/01/04 04:10:21;;;;;;;36.10;7.05;;;7.70;99.90;;;;;;5101418;27;20047;-85
2022/01/04 04:12:47;;;;;;;37.35;7.00;;;7.70;99.90;;;;;;5104358;27;20054;-83
2022/01/04 04:15:12;;;;;;;29.08;7.75;;;7.70;99.90;;;;;;5136657;27;20050;-83
2022/01/04 04:17:38;;;;;;;38.85;6.85;;;7.70;99.90;;;;;;5114954;27;20143;-82
2022/01/04 04:20:04;;;;;;;35.22;6.82;;;7.70;99.90;;;;;;5145338;27;20121;-82
2022/01/04 04:22:32;;;;;;;38.38;7.25;;;7.70;99.90;;;;;;5118295;27;20049;-82
2022/01/04 04:24:57;;;;;;;32.55;9.30;;;7.70;99.90;;;;;;5129589;27;20070;-82
2022/01/04 04:27:23;;;;;;;24.20;6.07;;;7.70;99.90;;;;;;5131280;27;20047;-84
2022/01/04 04:29:49;;;;;;;44.28;9.20;;;7.70;99.90;;;;;;5127920;27;20036;-82
2022/01/04 04:32:14;;;;;;;29.45;7.22;;;7.70;99.90;;;;;;5128894;27;20032;-80
2022/01/04 04:34:40;;;;;;;54.50;9.40;;;7.70;99.90;;;;;;5114528;28;20093;-84
2022/01/04 04:37:06;;;;;;;23.75;6.90;;;7.70;99.90;;;;;;5076015;28;20043;-83
2022/01/04 04:39:31;;;;;;;45.90;8.23;;;7.70;99.90;;;;;;5116075;27;20045;-83
2022/01/04 04:41:57;;;;;;;41.13;8.38;;;7.70;99.90;;;;;;5112157;27;20031;-84
2022/01/04 04:44:23;;;;;;;34.17;9.40;;;7.70;99.90;;;;;;5126183;27;20049;-84
2022/01/04 04:46:49;;;;;;;28.08;6.75;;;7.80;99.90;;;;;;5090858;28;20051;-83
2022/01/04 04:49:15;;;;;;;30.27;7.43;;;7.80;99.90;;;;;;5110266;27;20083;-82
2022/01/04 04:51:41;;;;;;;40.92;8.93;;;7.80;99.90;;;;;;5120530;27;20686;-84
2022/01/04 04:54:07;;;;;;;22.73;7.13;;;7.80;99.90;;;;;;5130416;27;20133;-83
2022/01/04 04:56:34;;;;;;;35.72;7.07;;;7.70;99.90;;;;;;5129736;27;20047;-84
2022/01/04 04:59:00;;;;;;;39.80;9.98;;;7.80;99.90;;;;;;5113091;27;20104;-84
2022/01/04 05:01:26;;;;;;;48.13;8.30;;;7.70;99.90;;;;;;5090444;27;20054;-83
2022/01/04 05:03:52;;;;;;;43.97;9.10;;;7.70;99.90;;;;;;5130724;27;20477;-84
2022/01/04 05:06:18;;;;;;;37.88;8.43;;;7.70;99.90;;;;;;5082851;27;20488;-84
2022/01/04 05:08:44;;;;;;;38.55;9.30;;;7.80;99.90;;;;;;5128691;27;20047;-83
2022/01/04 05:11:10;;;;;;;46.25;9.63;;;7.80;99.90;;;;;;5106411;28;20130;-85
2022/01/04 05:13:35;;;;;;;51.60;10.38;;;7.80;99.90;;;;;;5110041;28;20446;-84
2022/01/04 05:16:01;;;;;;;35.20;9.45;;;7.70;99.90;;;;;;5111601;28;20043;-83
2022/01/04 05:18:27;;;;;;;33.70;9.63;;;7.80;99.90;;;;;;5111381;28;20039;-83
2022/01/04 05:20:52;;;;;;;44.45;9.05;;;7.70;99.90;;;;;;5110278;28;20112;-84
2022/01/04 05:23:18;;;;;;;50.65;7.88;;;7.80;99.90;;;;;;5114480;28;20432;-84
2022/01/04 05:25:44;;;;;;;39.92;9.75;;;7.80;99.90;;;;;;5100759;28;20055;-84
2022/01/04 05:28:09;;;;;;;56.63;11.18;;;7.70;99.90;;;;;;5110945;28;20044;-83
2022/01/04 05:30:35;;;;;;;51.03;10.55;;;7.70;99.90;;;;;;5113296;28;20038;-84
2022/01/04 05:33:01;;;;;;;37.13;9.13;;;7.70;99.90;;;;;;5119252;28;20066;-84
2022/01/04 05:35:27;;;;;;;28.38;7.38;;;7.70;99.90;;;;;;5111384;28;20043;-84
2022/01/04 05:37:53;;;;;;;38.17;8.50;;;7.70;99.90;;;;;;5114145;28;20046;-83
2022/01/04 05:40:18;;;;;;;44.20;9.70;;;7.70;99.90;;;;;;5117945;28;20036;-85
2022/01/04 05:42:44;;;;;;;38.22;8.35;;;7.70;99.90;;;;;;5119857;28;20051;-85
2022/01/04 05:45:10;;;;;;;23.58;7.88;;;7.70;99.90;;;;;;5115743;28;20118;-83
2022/01/04 05:47:35;;;;;;;43.22;8.85;;;7.60;99.90;;;;;;5116003;28;20035;-83
2022/01/04 05:50:01;;;;;;;25.02;8.02;;;7.60;99.90;;;;;;5114377;28;20055;-82
2022/01/04 05:52:27;;;;;;;39.13;8.80;;;7.60;99.90;;;;;;5109484;28;20127;-84
2022/01/04 05:54:52;;;;;;;28.45;7.32;;;7.60;99.90;;;;;;5074774;28;20486;-84
2022/01/04 05:57:18;;;;;;;38.30;8.50;;;7.50;99.90;;;;;;5094797;28;20108;-83
2022/01/04 05:59:44;;;;;;;39.08;10.23;;;7.60;99.90;;;;;;5101287;28;20061;-84
2022/01/04 06:02:10;;;;;;;40.35;10.00;;;7.50;99.90;;;;;;5112137;28;20122;-84
2022/01/04 06:04:35;;;;;;;46.35;9.55;;;7.60;99.90;;;;;;5108877;28;20119;-84
2022/01/04 06:07:01;;;;;;;39.35;8.77;;;7.60;99.90;;;;;;5097517;28;20508;-79
2022/01/04 06:09:38;;;;;;;42.80;9.50;;;7.60;99.90;;;;;;5108892;28;20073;-81
2022/01/04 06:14:49;;;;;;;42.50;10.75;;;7.70;99.90;;;;;;5130010;28;20048;-81
2022/01/04 06:14:50;;;;;;;54.15;10.50;;;7.70;99.90;;;;;;5096793;28;20406;-81
2022/01/04 06:17:16;;;;;;;43.25;9.82;;;7.70;99.90;;;;;;5115281;28;20036;-81
2022/01/04 06:19:41;;;;;;;46.70;11.65;;;7.70;99.90;;;;;;5112553;27;20050;-82
2022/01/04 06:22:07;;;;;;;37.08;10.60;;;7.70;99.90;;;;;;5110491;27;20046;-83
2022/01/04 06:24:33;;;;;;;48.97;13.35;;;7.70;99.90;;;;;;5114615;27;20050;-83
2022/01/04 06:26:59;;;;;;;40.80;8.75;;;7.80;99.90;;;;;;5096925;28;20059;-82
2022/01/04 06:29:25;;;;;;;34.63;10.35;;;7.70;99.90;;;;;;5096373;28;20501;-80
2022/01/04 06:31:51;;;;;;;25.35;7.53;;;7.70;99.90;;;;;;5100157;28;20086;-82
2022/01/04 06:34:17;;;;;;;30.83;8.52;;;7.70;99.90;;;;;;5090467;28;20043;-82
2022/01/04 06:36:43;;;;;;;35.20;10.43;;;7.60;99.90;;;;;;5098031;28;20394;-81
2022/01/04 06:39:08;;;;;;;29.63;8.23;;;7.60;99.90;;;;;;5098760;28;20119;-82
2022/01/04 06:41:34;;;;;;;24.75;9.45;;;7.60;99.90;;;;;;5100574;28;20272;-82
2022/01/04 06:43:59;;;;;;;28.83;8.15;;;7.60;99.90;;;;;;5096805;28;20068;-82
2022/01/04 06:46:25;;;;;;;22.77;7.05;;;7.50;99.90;;;;;;5096906;28;20093;-83
2022/01/04 06:48:51;;;;;;;29.77;7.95;;;7.50;99.90;;;;;;5092720;28;20569;-83
2022/01/04 06:51:17;;;;;;;25.50;6.97;;;7.40;99.90;;;;;;5097834;28;20418;-82
2022/01/04 06:53:43;;;;;;;21.67;5.32;;;7.50;99.90;;;;;;5112792;27;20043;-80
2022/01/04 06:56:08;;;;;;;20.38;5.85;;;7.50;99.90;;;;;;5092689;28;20043;-82
2022/01/04 06:58:34;;;;;;;17.10;6.07;;;7.40;99.90;;;;;;5091889;28;20043;-83
2022/01/04 07:00:59;;;;;;;28.40;6.50;;;7.40;99.90;;;;;;5091748;28;20052;-83
2022/01/04 07:03:25;;;;;;;17.63;5.03;;;7.40;99.90;;;;;;5090671;28;20475;-83
2022/01/04 07:05:50;;;;;;;23.33;6.80;;;7.50;99.90;;;;;;5093173;28;20070;-83
2022/01/04 07:08:16;;;;;;;41.10;8.85;;;7.50;99.90;;;;;;5099219;28;20032;-85
2022/01/04 07:10:42;;;;;;;31.80;8.30;;;7.50;99.90;;;;;;5090747;28;20481;-83
2022/01/04 07:13:07;;;;;;;35.40;10.65;;;7.50;99.90;;;;;;5092036;28;20711;-83
2022/01/04 07:15:33;;;;;;;30.67;9.45;;;7.60;99.90;;;;;;5088946;28;20043;-82
2022/01/04 07:17:58;;;;;;;29.60;7.93;;;7.60;99.90;;;;;;5091273;28;20050;-81
2022/01/04 07:20:24;;;;;;;30.83;8.95;;;7.60;99.90;;;;;;5090979;28;20078;-83
2022/01/04 07:22:50;;;;;;;35.22;8.80;;;7.60;99.90;;;;;;5092033;28;20102;-85
2022/01/04 07:25:15;;;;;;;37.67;9.50;;;7.70;99.90;;;;;;5091748;28;20498;-84
2022/01/04 07:27:41;;;;;;;36.42;10.85;;;7.60;99.90;;;;;;5112464;27;20044;-85
2022/01/04 07:30:07;;;;;;;32.80;4.90;;;7.70;99.90;;;;;;5126823;27;20039;-84
2022/01/04 07:32:33;;;;;;;20.63;4.80;;;7.50;99.90;;;;;;5094075;28;20044;-83
2022/01/04 07:34:58;;;;;;;13.55;3.45;;;7.40;99.90;;;;;;5093529;28;20058;-83
2022/01/04 07:37:25;;;;;;;19.00;3.08;;;7.30;99.90;;;;;;5093767;27;20043;-83
2022/01/04 07:39:51;;;;;;;14.05;3.80;;;7.20;99.90;;;;;;5106016;27;20047;-82
2022/01/04 07:42:17;;;;;;;15.23;4.60;;;7.30;99.90;;;;;;5131469;27;20087;-81
2022/01/04 07:44:43;;;;;;;14.48;3.92;;;7.20;99.90;;;;;;5131829;27;20118;-81
2022/01/04 07:47:08;;;;;;;13.55;2.95;;;7.20;99.90;;;;;;5103559;28;20409;-82
2022/01/04 07:49:34;;;;;;;16.00;4.35;;;7.20;99.90;;;;;;5093199;27;20051;-82
2022/01/04 07:52:00;;;;;;;14.68;4.75;;;7.20;99.90;;;;;;5100018;27;20050;-80
2022/01/04 07:54:25;;;;;;;11.52;5.07;;;7.30;99.90;;;;;;5091859;28;20040;-79
2022/01/04 07:56:53;;;;;;;22.55;6.07;;;7.20;99.90;;;;;;5112076;27;20071;-79
2022/01/04 07:59:19;;;;;;;27.20;6.28;;;7.30;99.90;;;;;;5121899;27;20131;-80
2022/01/04 08:01:45;;;;;;;32.78;6.28;;;7.30;99.90;;;;;;5094486;27;20047;-85
2022/01/04 08:04:11;;;;;;;24.15;6.70;;;7.30;99.90;;;;;;5111382;27;20035;-85
2022/01/04 08:06:36;;;;;;;23.23;3.90;;;7.30;99.90;;;;;;5093091;27;20047;-82
2022/01/04 08:09:03;;;;;;;22.67;6.15;;;7.30;99.90;;;;;;5098026;27;20058;-82
2022/01/04 08:11:29;;;;;;;22.33;6.18;;;7.30;99.90;;;;;;5129018;27;20118;-84
2022/01/04 08:13:55;;;;;;;16.42;5.07;;;7.20;99.90;;;;;;5110781;27;20092;-84
2022/01/04 08:16:20;;;;;;;17.85;5.90;;;7.30;99.90;;;;;;5113346;27;20043;-84
2022/01/04 08:18:46;;;;;;;21.02;5.75;;;7.20;99.90;;;;;;5119907;27;20119;-84
2022/01/04 08:21:11;;;;;;;23.85;5.68;;;7.30;99.90;;;;;;5114408;27;20050;-85
2022/01/04 08:23:37;;;;;;;17.27;5.75;;;7.30;99.90;;;;;;5135156;27;20071;-84
2022/01/04 08:26:03;;;;;;;23.02;5.22;;;7.30;99.90;;;;;;5127951;27;20608;-86
2022/01/04 08:28:29;;;;;;;28.60;6.45;;;7.30;99.90;;;;;;5112221;27;20198;-86
2022/01/04 08:30:55;;;;;;;28.17;6.68;;;7.20;99.90;;;;;;5117512;27;20044;-85
2022/01/04 08:33:21;;;;;;;29.75;7.22;;;7.30;99.90;;;;;;5092169;28;20090;-83
2022/01/04 08:35:46;;;;;;;25.40;5.25;;;7.20;99.90;;;;;;5111567;27;20101;-80
2022/01/04 08:38:12;;;;;;;35.15;7.88;;;7.30;99.90;;;;;;5114201;27;20036;-81
2022/01/04 08:40:38;;;;;;;24.00;4.85;;;7.30;99.90;;;;;;5114830;27;20661;-81
2022/01/04 08:43:04;;;;;;;33.63;6.68;;;7.30;99.90;;;;;;5092158;28;20047;-80
2022/01/04 08:45:30;;;;;;;26.38;5.43;;;7.30;99.90;;;;;;5109751;28;20075;-81
2022/01/04 08:47:55;;;;;;;26.23;3.70;;;7.20;99.90;;;;;;5120208;27;20495;-78
2022/01/04 08:50:21;;;;;;;11.32;3.08;;;7.20;99.90;;;;;;5129438;27;20393;-76
2022/01/04 08:52:54;;;;;;;8.70;1.50;;;7.20;99.90;;;;;;5121544;27;20028;-79
2022/01/04 08:55:20;;;;;;;7.10;1.67;;;7.00;99.90;;;;;;5112187;28;20054;-80
2022/01/04 08:57:46;;;;;;;7.35;1.40;;;6.90;99.90;;;;;;5118665;27;20112;-78
2022/01/04 09:00:12;;;;;;;5.63;1.60;;;6.80;99.90;;;;;;5120361;27;20232;-80
2022/01/04 09:02:38;;;;;;;7.32;1.02;;;6.80;99.90;;;;;;5109965;28;20561;-79
2022/01/04 09:05:04;;;;;;;5.50;1.73;;;6.80;99.90;;;;;;5092132;28;20077;-81
2022/01/04 09:07:30;;;;;;;4.03;1.92;;;6.80;99.90;;;;;;5103466;28;20039;-78
2022/01/04 09:09:55;;;;;;;3.83;1.30;;;6.80;99.90;;;;;;5095793;28;20582;-81
2022/01/04 09:12:25;;;;;;;7.70;1.58;;;6.80;99.90;;;;;;5122602;27;20097;-82
2022/01/04 09:14:57;;;;;;;6.13;1.08;;;6.80;99.90;;;;;;5121394;27;20055;-81
2022/01/04 09:20:11;;;;;;;4.97;1.35;;;6.60;99.90;;;;;;5094182;28;20099;-80
2022/01/04 09:22:37;;;;;;;8.70;1.50;;;6.60;99.90;;;;;;5119263;28;20047;-81
2022/01/04 09:25:04;;;;;;;7.55;0.68;;;6.50;99.90;;;;;;5119831;28;20044;-79
2022/01/04 09:27:29;;;;;;;6.78;0.95;;;6.60;99.90;;;;;;5114907;28;20056;-80
2022/01/04 09:29:56;;;;;;;2.10;0.77;;;6.50;99.90;;;;;;5120354;28;20130;-80
2022/01/04 09:32:22;;;;;;;8.88;1.40;;;6.40;99.90;;;;;;5117342;28;20485;-80
2022/01/04 09:34:47;;;;;;;7.50;1.75;;;6.40;99.90;;;;;;5092701;28;20047;-79
2022/01/04 09:37:13;;;;;;;6.93;0.77;;;6.40;99.90;;;;;;5117471;28;20054;-81
2022/01/04 09:39:39;;;;;;;7.53;1.35;;;6.50;99.90;;;;;;5132964;28;20054;-83
2022/01/04 09:42:08;;;;;;;6.50;0.80;;;6.60;99.90;;;;;;5118751;28;20031;-82
2022/01/04 09:44:34;;;;;;;4.95;1.13;;;6.50;99.90;;;;;;5134107;28;20287;-84
2022/01/04 09:47:02;;;;;;;4.35;1.13;;;6.60;99.90;;;;;;5085958;28;20468;-84
2022/01/04 09:49:29;;;;;;;5.57;0.77;;;6.60;99.90;;;;;;5113711;28;20043;-83
2022/01/04 09:51:56;;;;;;;2.35;0.80;;;6.60;99.90;;;;;;5109920;28;20493;-83
2022/01/04 09:54:26;;;;;;;7.60;1.13;;;6.50;99.90;;;;;;5097128;27;20043;-83
2022/01/04 09:56:53;;;;;;;15.25;2.28;;;6.50;99.90;;;;;;5113316;27;20057;-85
2022/01/04 09:59:19;;;;;;;5.50;1.65;;;6.40;99.90;;;;;;5112823;27;20036;-81
2022/01/04 10:01:50;;;;;;;5.82;0.95;;;6.40;99.90;;;;;;5112262;27;20051;-81
2022/01/04 10:04:17;;;;;;;4.90;1.75;;;6.30;99.90;;;;;;5113770;27;20051;-82
2022/01/04 10:07:04;;;;;;;9.55;2.10;;;6.30;99.90;;;;;;5101641;27;20043;-78
2022/01/04 10:09:42;;;;;;;6.18;0.95;;;6.20;99.90;;;;;;5111225;28;20054;-78
2022/01/04 10:12:10;;;;;;;4.38;1.38;;;6.10;99.90;;;;;;5098645;27;20051;-76
2022/01/04 10:14:41;;;;;;;9.23;1.73;;;6.10;99.90;;;;;;5113348;27;20085;-82
2022/01/04 10:17:28;;;;;;;5.38;1.23;;;6.00;99.90;;;;;;5096033;27;20046;-82
2022/01/04 10:19:56;;;;;;;3.40;0.65;;;6.30;99.90;;;;;;5112511;28;20083;-74
2022/01/04 10:22:27;;;;;;;37.38;1.88;;;5.90;99.90;;;;;;5112442;27;20497;-81
2022/01/04 10:25:02;;;;;;;7.60;0.68;;;5.90;99.90;;;;;;5112776;28;20126;-81
2022/01/04 10:27:38;;;;;;;3.08;0.75;;;5.70;99.90;;;;;;5112181;28;20061;-82
2022/01/04 10:30:13;;;;;;;3.17;0.50;;;5.60;99.90;;;;;;5126141;27;20049;-80
2022/01/04 10:32:50;;;;;;;6.00;0.40;;;5.60;99.90;;;;;;5094580;27;20059;-83
2022/01/04 10:35:30;;;;;;;2.97;0.50;;;5.60;99.90;;;;;;5118536;27;20412;-78
2022/01/04 10:37:59;;;;;;;2.92;0.32;;;5.60;99.90;;;;;;5103946;27;20091;-78
2022/01/04 10:40:26;;;;;;;5.25;0.57;;;5.70;99.90;;;;;;5112629;27;20494;-79
2022/01/04 10:42:52;;;;;;;6.38;0.50;;;5.70;99.90;;;;;;5097211;27;20055;-77
2022/01/04 10:45:31;;;;;;;7.93;0.73;;;5.80;99.90;;;;;;5092460;28;20043;-76
2022/01/04 10:48:12;;;;;;;2.67;0.68;;;5.90;99.90;;;;;;5119602;27;20046;-77
2022/01/04 10:50:39;;;;;;;6.32;1.20;;;5.80;99.90;;;;;;5114564;27;20100;-78
2022/01/04 10:53:05;;;;;;;4.18;1.30;;;5.80;99.90;;;;;;5099726;28;20054;-84
2022/01/04 10:55:35;;;;;;;1.05;0.35;;;5.90;99.90;;;;;;5111769;27;20075;-82
2022/01/04 10:58:03;;;;;;;4.13;0.38;;;5.70;99.90;;;;;;5113869;27;20040;-82
2022/01/04 11:00:30;;;;;;;1.55;0.45;;;5.80;99.90;;;;;;5121433;27;20051;-79
2022/01/04 11:02:58;;;;;;;3.40;0.60;;;5.60;99.90;;;;;;5117017;27;20428;-83
2022/01/04 11:05:24;;;;;;;1.98;0.52;;;5.50;99.90;;;;;;5100829;27;20072;-77
2022/01/04 11:07:58;;;;;;;9.48;2.67;;;5.50;99.90;;;;;;5094729;27;20040;-74
2022/01/04 11:10:25;;;;;;;3.67;1.55;;;5.30;99.90;;;;;;5092838;28;20077;-76
2022/01/04 11:12:52;;;;;;;7.05;2.38;;;5.30;99.90;;;;;;5111728;27;20039;-77
2022/01/04 11:15:18;;;;;;;14.90;2.47;;;5.30;99.90;;;;;;5110015;28;20126;-77
2022/01/04 11:17:44;;;;;;;6.40;0.93;;;5.30;99.90;;;;;;5113092;27;20036;-76
2022/01/04 11:20:11;;;;;;;3.55;1.17;;;5.30;99.90;;;;;;5116428;27;20035;-75
2022/01/04 11:22:40;;;;;;;5.32;1.42;;;5.30;99.90;;;;;;5099155;27;20486;-77
2022/01/04 11:25:07;;;;;;;3.65;0.85;;;5.50;99.90;;;;;;5129433;27;20051;-74
2022/01/04 11:27:36;;;;;;;3.92;0.75;;;5.30;99.90;;;;;;5099967;27;20101;-76
2022/01/04 11:30:06;;;;;;;7.63;1.67;;;5.50;99.90;;;;;;5117396;27;20039;-75
2022/01/04 11:32:36;;;;;;;15.65;1.67;;;5.60;99.90;;;;;;5122949;27;20043;-74
2022/01/04 11:35:12;;;;;;;6.60;1.75;;;5.50;99.90;;;;;;5131325;27;20397;-75
2022/01/04 11:37:41;;;;;;;2.50;1.00;;;5.60;99.90;;;;;;5102494;27;20039;-77
2022/01/04 11:40:26;;;;;;;17.73;2.40;;;5.70;99.90;;;;;;5118530;27;20040;-75
2022/01/04 11:42:53;;;;;;;2.45;0.80;;;5.70;99.90;;;;;;5119769;27;20075;-77
2022/01/04 11:45:44;;;;;;;3.20;0.60;;;5.80;99.90;;;;;;5114724;27;20047;-76
2022/01/04 11:48:26;;;;;;;5.70;1.67;;;5.90;99.90;;;;;;5116134;27;20047;-76
2022/01/04 11:50:54;;;;;;;5.93;0.95;;;6.00;99.90;;;;;;5117912;27;20427;-77
2022/01/04 11:53:20;;;;;;;11.57;1.50;;;6.00;99.90;;;;;;5097141;27;20039;-81
2022/01/04 11:55:51;;;;;;;9.45;2.55;;;5.90;99.90;;;;;;5119137;27;20076;-78
2022/01/04 11:58:20;;;;;;;6.50;1.40;;;6.00;99.90;;;;;;5117540;27;20038;-80
2022/01/04 12:01:03;;;;;;;4.60;0.93;;;6.00;99.90;;;;;;5114598;27;20054;-76
2022/01/04 12:03:49;;;;;;;3.35;0.93;;;6.00;99.90;;;;;;5094670;28;20075;-78
2022/01/04 12:06:17;;;;;;;4.88;0.75;;;6.10;99.90;;;;;;5110017;27;20052;-75
2022/01/04 12:08:53;;;;;;;6.40;2.08;;;6.10;99.90;;;;;;5114695;27;20100;-75
2022/01/04 12:11:26;;;;;;;2.70;1.02;;;6.10;99.90;;;;;;5093157;28;20486;-77
2022/01/04 12:14:03;;;;;;;6.97;1.10;;;6.10;99.90;;;;;;5093051;27;20043;-78
2022/01/04 12:16:39;;;;;;;4.97;1.45;;;6.10;99.90;;;;;;5129061;27;20057;-77
2022/01/04 12:19:10;;;;;;;3.15;0.95;;;6.20;99.90;;;;;;5115446;27;20050;-77
2022/01/04 12:21:48;;;;;;;3.42;0.60;;;6.10;99.90;;;;;;5091903;28;20127;-76
2022/01/04 12:24:24;;;;;;;6.15;1.60;;;6.20;99.90;;;;;;5111882;27;20039;-77
2022/01/04 12:27:08;;;;;;;11.23;2.97;;;6.20;99.90;;;;;;5116919;27;20043;-77
2022/01/04 12:29:33;;;;;;;5.13;1.02;;;6.20;99.90;;;;;;5095436;27;20041;-79
2022/01/04 12:32:03;;;;;;;6.55;1.98;;;6.20;99.90;;;;;;5121862;27;20043;-81
2022/01/04 12:34:37;;;;;;;10.52;1.20;;;6.30;99.90;;;;;;5127587;27;20051;-81
2022/01/04 12:37:05;;;;;;;4.53;0.90;;;6.30;99.90;;;;;;5112796;27;20051;-78
2022/01/04 12:39:40;;;;;;;15.52;3.30;;;6.30;99.90;;;;;;5093336;28;20108;-80
2022/01/04 12:42:07;;;;;;;6.45;1.42;;;6.20;99.90;;;;;;5095710;28;20043;-78
2022/01/04 12:44:33;;;;;;;21.30;3.08;;;6.10;99.90;;;;;;5109929;27;20734;-74
2022/01/04 12:46:59;;;;;;;13.98;2.42;;;6.10;99.90;;;;;;5107550;27;20509;-76
2022/01/04 12:49:28;;;;;;;7.28;1.80;;;5.80;99.90;;;;;;5107271;27;20043;-79
2022/01/04 12:51:56;;;;;;;7.10;2.17;;;5.70;99.90;;;;;;5104225;27;20122;-81
2022/01/04 12:54:34;;;;;;;19.00;2.30;;;5.70;99.90;;;;;;5109228;28;20062;-78
2022/01/04 12:57:06;;;;;;;7.95;0.70;;;5.60;99.90;;;;;;5117082;27;20035;-79